sensor_id;sensor_type;location;lat;lon;timestamp;temperature;humidity
19947;DHT22;10135;50.702;7.276;2022-12-07T06:02:15;8.00;70.60
19947;DHT22;10135;50.702;7.276;2022-12-07T06:04:17;8.00;70.50
19947;DHT22;10135;50.702;7.276;2022-12-07T06:06:18;8.00;70.60
19947;DHT22;10135;50.702;7.276;2022-12-07T06:08:18;8.00;70.50
19947;DHT22;10135;50.702;7.276;2022-12-07T06:10:19;8.00;70.60
19947;DHT22;10135;50.702;7.276;2022-12-07T06:12:20;8.00;70.60
19947;DHT22;10135;50.702;7.276;2022-12-07T06:14:35;8.00;70.60
19947;DHT22;10135;50.702;7.276;2022-12-07T06:16:36;7.90;70.40
19947;DHT22;10135;50.702;7.276;2022-12-07T06:18:37;8.00;70.50
19947;DHT22;10135;50.702;7.276;2022-12-07T06:20:37;8.00;70.50
19947;DHT22;10135;50.702;7.276;2022-12-07T06:22:38;8.00;70.50
19947;DHT22;10135;50.702;7.276;2022-12-07T06:24:39;8.00;70.60
19947;DHT22;10135;50.702;7.276;2022-12-07T06:26:40;7.90;70.40
19947;DHT22;10135;50.702;7.276;2022-12-07T06:28:41;7.90;70.40
19947;DHT22;10135;50.702;7.276;2022-12-07T06:30:42;8.00;70.50
19947;DHT22;10135;50.702;7.276;2022-12-07T06:32:42;8.00;70.50
19947;DHT22;10135;50.702;7.276;2022-12-07T06:34:43;8.00;70.50
19947;DHT22;10135;50.702;7.276;2022-12-07T06:36:44;8.00;70.50
19947;DHT22;10135;50.702;7.276;2022-12-07T06:38:46;8.00;70.60
19947;DHT22;10135;50.702;7.276;2022-12-07T06:40:46;8.00;70.60
19947;DHT22;10135;50.702;7.276;2022-12-07T06:42:47;8.00;70.60
19947;DHT22;10135;50.702;7.276;2022-12-07T06:44:47;8.00;70.50
19947;DHT22;10135;50.702;7.276;2022-12-07T06:46:49;8.00;70.50
19947;DHT22;10135;50.702;7.276;2022-12-07T06:48:50;7.90;70.40
19947;DHT22;10135;50.702;7.276;2022-12-07T06:50:51;7.90;70.40
19947;DHT22;10135;50.702;7.276;2022-12-07T06:55:58;7.90;70.60
19947;DHT22;10135;50.702;7.276;2022-12-07T06:57:59;7.90;70.40
19947;DHT22;10135;50.702;7.276;2022-12-07T06:59:59;7.90;70.40
19947;DHT22;10135;50.702;7.276;2022-12-07T07:02:00;7.90;70.40
19947;DHT22;10135;50.702;7.276;2022-12-07T07:04:01;7.90;70.40
19947;DHT22;10135;50.702;7.276;2022-12-07T07:06:02;7.80;70.40
19947;DHT22;10135;50.702;7.276;2022-12-07T07:08:03;7.90;70.50
19947;DHT22;10135;50.702;7.276;2022-12-07T07:10:04;7.90;70.50
19947;DHT22;10135;50.702;7.276;2022-12-07T07:12:05;7.90;70.60
19947;DHT22;10135;50.702;7.276;2022-12-07T07:14:06;7.90;70.60
19947;DHT22;10135;50.702;7.276;2022-12-07T07:16:07;7.90;70.60
19947;DHT22;10135;50.702;7.276;2022-12-07T07:18:08;7.90;70.60
19947;DHT22;10135;50.702;7.276;2022-12-07T07:20:09;7.90;70.60
19947;DHT22;10135;50.702;7.276;2022-12-07T07:22:10;7.90;70.60
19947;DHT22;10135;50.702;7.276;2022-12-07T07:24:11;7.90;70.60
19947;DHT22;10135;50.702;7.276;2022-12-07T07:26:11;7.90;70.60
19947;DHT22;10135;50.702;7.276;2022-12-07T07:28:12;7.90;70.60
19947;DHT22;10135;50.702;7.276;2022-12-07T07:30:13;7.90;70.60
19947;DHT22;10135;50.702;7.276;2022-12-07T07:32:14;7.90;70.60
19947;DHT22;10135;50.702;7.276;2022-12-07T07:34:14;7.90;70.60
19947;DHT22;10135;50.702;7.276;2022-12-07T07:36:15;7.90;70.60
19947;DHT22;10135;50.702;7.276;2022-12-07T07:38:16;7.90;70.60
19947;DHT22;10135;50.702;7.276;2022-12-07T07:40:16;7.90;70.60
19947;DHT22;10135;50.702;7.276;2022-12-07T07:42:17;7.90;70.60
19947;DHT22;10135;50.702;7.276;2022-12-07T07:44:18;7.90;70.60
19947;DHT22;10135;50.702;7.276;2022-12-07T07:46:18;7.90;70.60
19947;DHT22;10135;50.702;7.276;2022-12-07T07:48:19;7.90;70.60
19947;DHT22;10135;50.702;7.276;2022-12-07T07:50:20;7.90;70.60
19947;DHT22;10135;50.702;7.276;2022-12-07T07:52:21;7.90;70.60
19947;DHT22;10135;50.702;7.276;2022-12-07T07:54:21;7.90;70.60
19947;DHT22;10135;50.702;7.276;2022-12-07T07:56:22;7.90;70.60
19947;DHT22;10135;50.702;7.276;2022-12-07T07:58:23;8.00;70.60
19947;DHT22;10135;50.702;7.276;2022-12-07T08:00:24;7.90;70.50
19947;DHT22;10135;50.702;7.276;2022-12-07T08:02:25;8.00;70.60
19947;DHT22;10135;50.702;7.276;2022-12-07T08:04:25;8.00;70.60
19947;DHT22;10135;50.702;7.276;2022-12-07T08:06:26;8.00;70.60
19947;DHT22;10135;50.702;7.276;2022-12-07T08:08:27;8.00;70.60
19947;DHT22;10135;50.702;7.276;2022-12-07T08:10:27;8.00;70.60
19947;DHT22;10135;50.702;7.276;2022-12-07T08:12:28;8.00;70.60
19947;DHT22;10135;50.702;7.276;2022-12-07T08:14:29;8.00;70.60
19947;DHT22;10135;50.702;7.276;2022-12-07T08:20:13;8.00;70.60
19947;DHT22;10135;50.702;7.276;2022-12-07T08:26:39;8.00;70.50
19947;DHT22;10135;50.702;7.276;2022-12-07T08:37:16;8.00;70.70
19947;DHT22;10135;50.702;7.276;2022-12-07T08:39:17;8.00;70.60
19947;DHT22;10135;50.702;7.276;2022-12-07T08:41:17;8.00;70.60
19947;DHT22;10135;50.702;7.276;2022-12-07T08:43:21;8.00;70.60
19947;DHT22;10135;50.702;7.276;2022-12-07T08:45:22;8.00;70.60
19947;DHT22;10135;50.702;7.276;2022-12-07T08:47:23;8.00;70.60
19947;DHT22;10135;50.702;7.276;2022-12-07T08:49:41;8.10;70.70
19947;DHT22;10135;50.702;7.276;2022-12-07T08:52:10;8.00;70.70
19947;DHT22;10135;50.702;7.276;2022-12-07T08:57:59;8.10;70.80
19947;DHT22;10135;50.702;7.276;2022-12-07T09:06:37;8.20;70.70
19947;DHT22;10135;50.702;7.276;2022-12-07T09:08:42;8.20;70.70
19947;DHT22;10135;50.702;7.276;2022-12-07T09:10:46;8.30;70.80
19947;DHT22;10135;50.702;7.276;2022-12-07T09:12:47;8.30;70.70
19947;DHT22;10135;50.702;7.276;2022-12-07T09:14:48;8.30;70.70
19947;DHT22;10135;50.702;7.276;2022-12-07T09:16:49;8.30;70.60
19947;DHT22;10135;50.702;7.276;2022-12-07T09:18:52;8.30;70.60
19947;DHT22;10135;50.702;7.276;2022-12-07T09:20:53;8.30;70.60
19947;DHT22;10135;50.702;7.276;2022-12-07T09:22:54;8.30;70.50
19947;DHT22;10135;50.702;7.276;2022-12-07T09:24:56;8.30;70.50
19947;DHT22;10135;50.702;7.276;2022-12-07T09:27:00;8.30;70.50
19947;DHT22;10135;50.702;7.276;2022-12-07T09:29:02;8.30;70.50
19947;DHT22;10135;50.702;7.276;2022-12-07T09:31:04;8.30;70.50
19947;DHT22;10135;50.702;7.276;2022-12-07T09:33:31;8.30;70.50
19947;DHT22;10135;50.702;7.276;2022-12-07T09:35:45;8.30;70.60
19947;DHT22;10135;50.702;7.276;2022-12-07T09:37:47;8.30;70.50
19947;DHT22;10135;50.702;7.276;2022-12-07T09:39:47;8.30;70.50
19947;DHT22;10135;50.702;7.276;2022-12-07T09:41:48;8.30;70.50
19947;DHT22;10135;50.702;7.276;2022-12-07T09:43:49;8.40;70.60
19947;DHT22;10135;50.702;7.276;2022-12-07T09:45:53;8.40;70.60
19947;DHT22;10135;50.702;7.276;2022-12-07T09:47:55;8.40;70.50
19947;DHT22;10135;50.702;7.276;2022-12-07T09:50:29;8.40;70.50
19947;DHT22;10135;50.702;7.276;2022-12-07T09:52:49;8.40;70.50
19947;DHT22;10135;50.702;7.276;2022-12-07T09:54:54;8.40;70.60
19947;DHT22;10135;50.702;7.276;2022-12-07T09:56:55;8.40;70.40
19947;DHT22;10135;50.702;7.276;2022-12-07T09:58:59;8.40;70.40
19947;DHT22;10135;50.702;7.276;2022-12-07T10:03:08;8.40;70.50
19947;DHT22;10135;50.702;7.276;2022-12-07T10:05:46;8.40;70.50
19947;DHT22;10135;50.702;7.276;2022-12-07T10:07:58;8.40;70.50
19947;DHT22;10135;50.702;7.276;2022-12-07T10:10:33;8.40;70.50
19947;DHT22;10135;50.702;7.276;2022-12-07T10:13:12;8.40;70.50
19947;DHT22;10135;50.702;7.276;2022-12-07T10:15:15;8.40;70.40
19947;DHT22;10135;50.702;7.276;2022-12-07T10:17:30;8.40;70.50
19947;DHT22;10135;50.702;7.276;2022-12-07T10:19:33;8.50;70.60
19947;DHT22;10135;50.702;7.276;2022-12-07T10:21:34;8.50;70.60
19947;DHT22;10135;50.702;7.276;2022-12-07T10:23:39;8.50;70.70
19947;DHT22;10135;50.702;7.276;2022-12-07T10:25:41;8.50;70.70
19947;DHT22;10135;50.702;7.276;2022-12-07T10:27:42;8.60;70.60
19947;DHT22;10135;50.702;7.276;2022-12-07T10:29:51;8.60;70.60
19947;DHT22;10135;50.702;7.276;2022-12-07T10:32:26;8.60;70.60
19947;DHT22;10135;50.702;7.276;2022-12-07T10:34:36;8.60;70.60
19947;DHT22;10135;50.702;7.276;2022-12-07T10:36:38;8.70;70.50
19947;DHT22;10135;50.702;7.276;2022-12-07T10:38:45;8.60;70.40
19947;DHT22;10135;50.702;7.276;2022-12-07T10:44:38;8.70;70.40
19947;DHT22;10135;50.702;7.276;2022-12-07T10:50:45;8.70;70.40
19947;DHT22;10135;50.702;7.276;2022-12-07T10:55:56;8.70;70.40
19947;DHT22;10135;50.702;7.276;2022-12-07T10:58:38;8.70;70.40
19947;DHT22;10135;50.702;7.276;2022-12-07T11:01:16;8.70;70.40
19947;DHT22;10135;50.702;7.276;2022-12-07T11:03:44;8.80;70.60
19947;DHT22;10135;50.702;7.276;2022-12-07T11:09:16;8.80;70.40
19947;DHT22;10135;50.702;7.276;2022-12-07T11:24:03;8.90;70.60
19947;DHT22;10135;50.702;7.276;2022-12-07T11:26:17;8.90;70.60
19947;DHT22;10135;50.702;7.276;2022-12-07T11:31:39;9.00;70.60
19947;DHT22;10135;50.702;7.276;2022-12-07T11:34:19;9.00;70.40
19947;DHT22;10135;50.702;7.276;2022-12-07T11:36:47;9.10;70.30
19947;DHT22;10135;50.702;7.276;2022-12-07T11:38:55;9.10;70.10
19947;DHT22;10135;50.702;7.276;2022-12-07T12:11:59;9.20;70.40
19947;DHT22;10135;50.702;7.276;2022-12-07T12:14:30;9.20;70.30
19947;DHT22;10135;50.702;7.276;2022-12-07T12:20:20;9.20;70.00
19947;DHT22;10135;50.702;7.276;2022-12-07T12:22:34;9.20;69.80
19947;DHT22;10135;50.702;7.276;2022-12-07T12:24:39;9.20;69.80
19947;DHT22;10135;50.702;7.276;2022-12-07T12:26:54;9.20;69.90
19947;DHT22;10135;50.702;7.276;2022-12-07T12:29:06;9.20;69.80
19947;DHT22;10135;50.702;7.276;2022-12-07T12:33:30;9.10;69.70
19947;DHT22;10135;50.702;7.276;2022-12-07T12:35:35;9.10;69.60
19947;DHT22;10135;50.702;7.276;2022-12-07T12:39:37;9.10;69.80
19947;DHT22;10135;50.702;7.276;2022-12-07T12:43:50;9.10;69.80
19947;DHT22;10135;50.702;7.276;2022-12-07T12:48:37;9.10;69.60
19947;DHT22;10135;50.702;7.276;2022-12-07T12:50:38;9.10;69.80
19947;DHT22;10135;50.702;7.276;2022-12-07T12:57:17;9.10;69.80
19947;DHT22;10135;50.702;7.276;2022-12-07T12:59:34;9.10;69.90
19947;DHT22;10135;50.702;7.276;2022-12-07T13:01:41;9.20;69.80
19947;DHT22;10135;50.702;7.276;2022-12-07T13:03:56;9.20;69.90
19947;DHT22;10135;50.702;7.276;2022-12-07T13:08:25;9.20;69.70
19947;DHT22;10135;50.702;7.276;2022-12-07T13:12:30;9.20;69.90
19947;DHT22;10135;50.702;7.276;2022-12-07T13:16:41;9.20;69.80
19947;DHT22;10135;50.702;7.276;2022-12-07T13:18:42;9.20;69.90
19947;DHT22;10135;50.702;7.276;2022-12-07T13:21:48;9.20;69.80
19947;DHT22;10135;50.702;7.276;2022-12-07T13:25:53;9.30;69.60
19947;DHT22;10135;50.702;7.276;2022-12-07T13:28:09;9.20;69.70
19947;DHT22;10135;50.702;7.276;2022-12-07T13:30:18;9.30;69.60
19947;DHT22;10135;50.702;7.276;2022-12-07T13:32:24;9.20;69.70
19947;DHT22;10135;50.702;7.276;2022-12-07T13:34:40;9.20;69.60
19947;DHT22;10135;50.702;7.276;2022-12-07T13:36:44;9.20;70.40
19947;DHT22;10135;50.702;7.276;2022-12-07T13:39:17;9.20;69.60
19947;DHT22;10135;50.702;7.276;2022-12-07T13:41:21;9.20;69.40
19947;DHT22;10135;50.702;7.276;2022-12-07T13:43:23;9.20;69.60
19947;DHT22;10135;50.702;7.276;2022-12-07T13:47:51;9.20;69.40
19947;DHT22;10135;50.702;7.276;2022-12-07T13:49:56;9.20;69.40
19947;DHT22;10135;50.702;7.276;2022-12-07T13:52:16;9.20;69.40
19947;DHT22;10135;50.702;7.276;2022-12-07T13:54:20;9.20;69.20
19947;DHT22;10135;50.702;7.276;2022-12-07T13:56:27;9.10;69.30
19947;DHT22;10135;50.702;7.276;2022-12-07T13:58:35;9.10;69.20
19947;DHT22;10135;50.702;7.276;2022-12-07T14:00:36;9.10;69.20
19947;DHT22;10135;50.702;7.276;2022-12-07T14:02:53;9.10;69.30
19947;DHT22;10135;50.702;7.276;2022-12-07T14:05:14;9.10;69.30
19947;DHT22;10135;50.702;7.276;2022-12-07T14:07:27;9.00;69.10
19947;DHT22;10135;50.702;7.276;2022-12-07T14:09:29;9.00;69.20
19947;DHT22;10135;50.702;7.276;2022-12-07T14:11:31;9.00;69.30
19947;DHT22;10135;50.702;7.276;2022-12-07T14:13:38;9.00;69.30
19947;DHT22;10135;50.702;7.276;2022-12-07T14:15:50;9.00;69.30
19947;DHT22;10135;50.702;7.276;2022-12-07T14:17:53;8.90;69.20
19947;DHT22;10135;50.702;7.276;2022-12-07T14:20:03;9.00;69.30
19947;DHT22;10135;50.702;7.276;2022-12-07T14:22:18;8.90;69.20
19947;DHT22;10135;50.702;7.276;2022-12-07T14:24:22;8.90;69.30
19947;DHT22;10135;50.702;7.276;2022-12-07T14:26:22;8.90;69.30
19947;DHT22;10135;50.702;7.276;2022-12-07T14:28:34;8.90;69.30
19947;DHT22;10135;50.702;7.276;2022-12-07T14:30:37;8.90;69.30
19947;DHT22;10135;50.702;7.276;2022-12-07T14:32:38;8.90;69.30
19947;DHT22;10135;50.702;7.276;2022-12-07T14:34:38;8.90;69.30
19947;DHT22;10135;50.702;7.276;2022-12-07T14:36:39;8.90;69.30
19947;DHT22;10135;50.702;7.276;2022-12-07T14:38:40;8.90;69.30
19947;DHT22;10135;50.702;7.276;2022-12-07T14:40:41;8.90;69.30
19947;DHT22;10135;50.702;7.276;2022-12-07T14:42:54;8.90;69.30
19947;DHT22;10135;50.702;7.276;2022-12-07T14:45:13;8.90;69.10
19947;DHT22;10135;50.702;7.276;2022-12-07T14:47:17;8.90;69.10
19947;DHT22;10135;50.702;7.276;2022-12-07T14:49:18;8.80;69.10
19947;DHT22;10135;50.702;7.276;2022-12-07T14:51:18;8.80;69.20
19947;DHT22;10135;50.702;7.276;2022-12-07T14:53:22;8.80;69.10
19947;DHT22;10135;50.702;7.276;2022-12-07T14:55:30;8.80;69.10
19947;DHT22;10135;50.702;7.276;2022-12-07T14:57:31;8.80;69.10
19947;DHT22;10135;50.702;7.276;2022-12-07T14:59:32;8.70;69.00
19947;DHT22;10135;50.702;7.276;2022-12-07T15:01:34;8.70;69.00
19947;DHT22;10135;50.702;7.276;2022-12-07T15:03:34;8.70;68.90
19947;DHT22;10135;50.702;7.276;2022-12-07T15:05:37;8.70;69.00
19947;DHT22;10135;50.702;7.276;2022-12-07T15:07:38;8.60;68.90
19947;DHT22;10135;50.702;7.276;2022-12-07T15:09:39;8.60;68.90
19947;DHT22;10135;50.702;7.276;2022-12-07T15:11:40;8.60;68.90
19947;DHT22;10135;50.702;7.276;2022-12-07T15:13:40;8.60;68.90
19947;DHT22;10135;50.702;7.276;2022-12-07T15:16:00;8.60;68.90
19947;DHT22;10135;50.702;7.276;2022-12-07T15:18:00;8.60;68.90
19947;DHT22;10135;50.702;7.276;2022-12-07T15:20:01;8.60;68.90
19947;DHT22;10135;50.702;7.276;2022-12-07T15:22:03;8.60;68.90
19947;DHT22;10135;50.702;7.276;2022-12-07T15:24:05;8.60;68.90
19947;DHT22;10135;50.702;7.276;2022-12-07T15:26:06;8.50;68.90
19947;DHT22;10135;50.702;7.276;2022-12-07T15:28:08;8.50;69.00
19947;DHT22;10135;50.702;7.276;2022-12-07T15:30:08;8.50;69.00
19947;DHT22;10135;50.702;7.276;2022-12-07T15:32:09;8.50;69.00
19947;DHT22;10135;50.702;7.276;2022-12-07T15:34:10;8.50;69.70
19947;DHT22;10135;50.702;7.276;2022-12-07T15:36:19;8.50;69.00
19947;DHT22;10135;50.702;7.276;2022-12-07T15:38:21;8.50;68.90
19947;DHT22;10135;50.702;7.276;2022-12-07T15:40:22;8.50;69.00
19947;DHT22;10135;50.702;7.276;2022-12-07T15:42:23;8.50;69.00
19947;DHT22;10135;50.702;7.276;2022-12-07T15:44:24;8.50;69.00
19947;DHT22;10135;50.702;7.276;2022-12-07T15:46:43;8.50;69.10
19947;DHT22;10135;50.702;7.276;2022-12-07T15:48:45;8.50;69.10
19947;DHT22;10135;50.702;7.276;2022-12-07T15:50:46;8.50;69.10
19947;DHT22;10135;50.702;7.276;2022-12-07T15:52:46;8.50;69.10
19947;DHT22;10135;50.702;7.276;2022-12-07T15:54:47;8.50;69.10
19947;DHT22;10135;50.702;7.276;2022-12-07T15:56:48;8.50;69.10
19947;DHT22;10135;50.702;7.276;2022-12-07T15:58:49;8.50;69.10
19947;DHT22;10135;50.702;7.276;2022-12-07T16:00:50;8.50;69.10
19947;DHT22;10135;50.702;7.276;2022-12-07T16:02:50;8.50;69.20
19947;DHT22;10135;50.702;7.276;2022-12-07T16:04:52;8.50;69.10
19947;DHT22;10135;50.702;7.276;2022-12-07T16:06:53;8.50;69.10
19947;DHT22;10135;50.702;7.276;2022-12-07T16:08:54;8.50;69.20
19947;DHT22;10135;50.702;7.276;2022-12-07T16:10:54;8.50;69.10
19947;DHT22;10135;50.702;7.276;2022-12-07T16:12:55;8.50;69.10
19947;DHT22;10135;50.702;7.276;2022-12-07T16:14:56;8.50;69.10
19947;DHT22;10135;50.702;7.276;2022-12-07T16:16:56;8.50;69.20
19947;DHT22;10135;50.702;7.276;2022-12-07T16:18:57;8.50;69.10
19947;DHT22;10135;50.702;7.276;2022-12-07T16:20:58;8.50;69.00
19947;DHT22;10135;50.702;7.276;2022-12-07T16:22:59;8.50;69.00
19947;DHT22;10135;50.702;7.276;2022-12-07T16:25:00;8.50;69.00
19947;DHT22;10135;50.702;7.276;2022-12-07T16:27:00;8.40;69.00
19947;DHT22;10135;50.702;7.276;2022-12-07T16:29:01;8.40;69.00
19947;DHT22;10135;50.702;7.276;2022-12-07T16:31:11;8.40;69.00
19947;DHT22;10135;50.702;7.276;2022-12-07T16:33:13;8.40;68.90
19947;DHT22;10135;50.702;7.276;2022-12-07T16:35:14;8.40;69.00
19947;DHT22;10135;50.702;7.276;2022-12-07T16:37:15;8.40;69.00
19947;DHT22;10135;50.702;7.276;2022-12-07T16:39:15;8.40;69.00
19947;DHT22;10135;50.702;7.276;2022-12-07T16:41:16;8.40;69.00
19947;DHT22;10135;50.702;7.276;2022-12-07T16:43:17;8.40;68.90
19947;DHT22;10135;50.702;7.276;2022-12-07T16:45:17;8.40;69.00
19947;DHT22;10135;50.702;7.276;2022-12-07T16:47:18;8.40;69.00
19947;DHT22;10135;50.702;7.276;2022-12-07T16:49:19;8.40;69.00
19947;DHT22;10135;50.702;7.276;2022-12-07T16:51:19;8.40;69.00
19947;DHT22;10135;50.702;7.276;2022-12-07T16:53:21;8.40;69.00
19947;DHT22;10135;50.702;7.276;2022-12-07T16:55:23;8.30;68.90
19947;DHT22;10135;50.702;7.276;2022-12-07T16:57:24;8.40;69.00
19947;DHT22;10135;50.702;7.276;2022-12-07T16:59:25;8.40;69.00
19947;DHT22;10135;50.702;7.276;2022-12-07T17:01:25;8.30;68.90
19947;DHT22;10135;50.702;7.276;2022-12-07T17:03:28;8.30;69.70
19947;DHT22;10135;50.702;7.276;2022-12-07T17:05:29;8.40;69.00
19947;DHT22;10135;50.702;7.276;2022-12-07T17:07:29;8.40;69.00
19947;DHT22;10135;50.702;7.276;2022-12-07T17:09:30;8.40;69.00
19947;DHT22;10135;50.702;7.276;2022-12-07T17:11:31;8.40;69.00
19947;DHT22;10135;50.702;7.276;2022-12-07T17:13:31;8.40;69.00
19947;DHT22;10135;50.702;7.276;2022-12-07T17:15:58;8.40;68.90
19947;DHT22;10135;50.702;7.276;2022-12-07T17:18:00;8.40;68.80
19947;DHT22;10135;50.702;7.276;2022-12-07T17:20:01;8.40;68.90
19947;DHT22;10135;50.702;7.276;2022-12-07T17:22:04;8.40;68.90
19947;DHT22;10135;50.702;7.276;2022-12-07T17:24:07;8.40;68.90
19947;DHT22;10135;50.702;7.276;2022-12-07T17:26:12;8.40;68.80
19947;DHT22;10135;50.702;7.276;2022-12-07T17:28:14;8.40;68.80
19947;DHT22;10135;50.702;7.276;2022-12-07T17:30:15;8.30;68.70
19947;DHT22;10135;50.702;7.276;2022-12-07T17:32:16;8.30;68.60
19947;DHT22;10135;50.702;7.276;2022-12-07T17:34:17;8.30;68.60
19947;DHT22;10135;50.702;7.276;2022-12-07T17:36:21;8.30;68.60
19947;DHT22;10135;50.702;7.276;2022-12-07T17:38:23;8.20;68.60
19947;DHT22;10135;50.702;7.276;2022-12-07T17:40:24;8.20;68.70
19947;DHT22;10135;50.702;7.276;2022-12-07T17:42:26;8.10;68.60
19947;DHT22;10135;50.702;7.276;2022-12-07T17:44:36;8.10;68.80
19947;DHT22;10135;50.702;7.276;2022-12-07T17:46:37;8.10;68.80
19947;DHT22;10135;50.702;7.276;2022-12-07T17:48:39;8.10;68.80
19947;DHT22;10135;50.702;7.276;2022-12-07T17:50:39;8.10;68.90
19947;DHT22;10135;50.702;7.276;2022-12-07T17:53:19;8.10;68.90
19947;DHT22;10135;50.702;7.276;2022-12-07T17:55:19;8.10;68.90
19947;DHT22;10135;50.702;7.276;2022-12-07T17:57:20;8.10;69.00
19947;DHT22;10135;50.702;7.276;2022-12-07T17:59:21;8.10;69.00
19947;DHT22;10135;50.702;7.276;2022-12-07T18:01:21;8.00;69.70
19947;DHT22;10135;50.702;7.276;2022-12-07T18:03:22;8.10;69.00
19947;DHT22;10135;50.702;7.276;2022-12-07T18:05:23;8.10;69.10
19947;DHT22;10135;50.702;7.276;2022-12-07T18:07:23;8.10;69.00
19947;DHT22;10135;50.702;7.276;2022-12-07T18:09:24;8.00;69.00
19947;DHT22;10135;50.702;7.276;2022-12-07T18:11:25;8.00;69.00
19947;DHT22;10135;50.702;7.276;2022-12-07T18:13:26;8.00;69.00
19947;DHT22;10135;50.702;7.276;2022-12-07T18:15:36;8.00;69.10
19947;DHT22;10135;50.702;7.276;2022-12-07T18:17:36;8.00;69.00
19947;DHT22;10135;50.702;7.276;2022-12-07T18:19:37;8.00;69.10
19947;DHT22;10135;50.702;7.276;2022-12-07T18:21:38;8.00;69.00
19947;DHT22;10135;50.702;7.276;2022-12-07T18:23:40;8.00;69.00
19947;DHT22;10135;50.702;7.276;2022-12-07T18:25:49;8.00;69.10
19947;DHT22;10135;50.702;7.276;2022-12-07T18:27:50;8.00;69.10
19947;DHT22;10135;50.702;7.276;2022-12-07T18:29:51;8.00;69.10
19947;DHT22;10135;50.702;7.276;2022-12-07T18:31:53;8.00;69.10
19947;DHT22;10135;50.702;7.276;2022-12-07T18:33:54;8.00;69.10
19947;DHT22;10135;50.702;7.276;2022-12-07T18:35:58;8.00;69.10
19947;DHT22;10135;50.702;7.276;2022-12-07T18:37:59;8.00;69.10
19947;DHT22;10135;50.702;7.276;2022-12-07T18:40:00;8.00;69.10
19947;DHT22;10135;50.702;7.276;2022-12-07T18:42:01;8.00;69.10
19947;DHT22;10135;50.702;7.276;2022-12-07T18:44:03;8.00;69.10
19947;DHT22;10135;50.702;7.276;2022-12-07T18:46:31;8.00;69.10
19947;DHT22;10135;50.702;7.276;2022-12-07T18:48:33;8.00;69.10
19947;DHT22;10135;50.702;7.276;2022-12-07T18:50:35;8.00;69.10
19947;DHT22;10135;50.702;7.276;2022-12-07T18:52:36;8.00;69.10
19947;DHT22;10135;50.702;7.276;2022-12-07T18:54:37;8.00;69.10
19947;DHT22;10135;50.702;7.276;2022-12-07T18:56:38;8.00;69.10
19947;DHT22;10135;50.702;7.276;2022-12-07T18:58:39;8.00;69.10
19947;DHT22;10135;50.702;7.276;2022-12-07T19:00:59;8.00;69.10
19947;DHT22;10135;50.702;7.276;2022-12-07T19:03:00;8.00;69.10
19947;DHT22;10135;50.702;7.276;2022-12-07T19:05:01;8.00;69.10
19947;DHT22;10135;50.702;7.276;2022-12-07T19:07:02;8.00;69.10
19947;DHT22;10135;50.702;7.276;2022-12-07T19:09:03;8.00;69.10
19947;DHT22;10135;50.702;7.276;2022-12-07T19:11:04;8.00;69.00
19947;DHT22;10135;50.702;7.276;2022-12-07T19:13:25;8.00;69.00
19947;DHT22;10135;50.702;7.276;2022-12-07T19:15:25;8.00;69.00
19947;DHT22;10135;50.702;7.276;2022-12-07T19:17:26;8.00;69.00
19947;DHT22;10135;50.702;7.276;2022-12-07T19:19:35;8.00;69.00
19947;DHT22;10135;50.702;7.276;2022-12-07T19:21:40;8.00;69.00
19947;DHT22;10135;50.702;7.276;2022-12-07T19:23:41;8.00;69.00
19947;DHT22;10135;50.702;7.276;2022-12-07T19:25:42;8.00;69.00
19947;DHT22;10135;50.702;7.276;2022-12-07T19:27:42;8.00;69.00
19947;DHT22;10135;50.702;7.276;2022-12-07T19:29:43;8.00;69.00
19947;DHT22;10135;50.702;7.276;2022-12-07T19:31:45;7.90;68.90
19947;DHT22;10135;50.702;7.276;2022-12-07T19:33:46;8.00;69.00
19947;DHT22;10135;50.702;7.276;2022-12-07T19:35:46;7.90;68.90
19947;DHT22;10135;50.702;7.276;2022-12-07T19:37:47;7.90;68.90
19947;DHT22;10135;50.702;7.276;2022-12-07T19:39:48;8.00;69.00
19947;DHT22;10135;50.702;7.276;2022-12-07T19:41:51;8.00;69.00
19947;DHT22;10135;50.702;7.276;2022-12-07T19:43:51;7.90;68.90
19947;DHT22;10135;50.702;7.276;2022-12-07T19:45:52;7.90;68.90
19947;DHT22;10135;50.702;7.276;2022-12-07T19:47:52;7.90;68.90
19947;DHT22;10135;50.702;7.276;2022-12-07T19:49:53;7.90;68.90
19947;DHT22;10135;50.702;7.276;2022-12-07T19:51:56;7.90;68.90
19947;DHT22;10135;50.702;7.276;2022-12-07T19:53:59;7.90;68.90
19947;DHT22;10135;50.702;7.276;2022-12-07T19:56:01;7.90;68.90
19947;DHT22;10135;50.702;7.276;2022-12-07T19:58:01;7.90;68.90
19947;DHT22;10135;50.702;7.276;2022-12-07T20:00:03;7.90;68.90
19947;DHT22;10135;50.702;7.276;2022-12-07T20:02:04;7.90;68.90
19947;DHT22;10135;50.702;7.276;2022-12-07T20:04:08;7.90;68.90
19947;DHT22;10135;50.702;7.276;2022-12-07T20:06:16;8.00;69.00
19947;DHT22;10135;50.702;7.276;2022-12-07T20:08:18;8.00;69.00
19947;DHT22;10135;50.702;7.276;2022-12-07T20:10:19;8.00;69.00
19947;DHT22;10135;50.702;7.276;2022-12-07T20:12:20;8.00;69.00
19947;DHT22;10135;50.702;7.276;2022-12-07T20:14:39;8.00;69.70
19947;DHT22;10135;50.702;7.276;2022-12-07T20:16:42;8.00;69.00
19947;DHT22;10135;50.702;7.276;2022-12-07T20:18:46;8.00;68.90
19947;DHT22;10135;50.702;7.276;2022-12-07T20:20:57;8.00;68.90
19947;DHT22;10135;50.702;7.276;2022-12-07T20:22:58;8.00;68.90
19947;DHT22;10135;50.702;7.276;2022-12-07T20:24:59;8.00;69.00
19947;DHT22;10135;50.702;7.276;2022-12-07T20:27:00;8.00;68.90
19947;DHT22;10135;50.702;7.276;2022-12-07T20:29:08;8.00;68.90
19947;DHT22;10135;50.702;7.276;2022-12-07T20:31:16;8.00;68.90
19947;DHT22;10135;50.702;7.276;2022-12-07T20:33:17;8.00;68.90
19947;DHT22;10135;50.702;7.276;2022-12-07T20:35:18;8.00;68.90
19947;DHT22;10135;50.702;7.276;2022-12-07T20:37:19;8.00;68.90
19947;DHT22;10135;50.702;7.276;2022-12-07T20:39:20;8.00;68.80
19947;DHT22;10135;50.702;7.276;2022-12-07T20:41:22;8.00;68.80
19947;DHT22;10135;50.702;7.276;2022-12-07T20:43:43;8.00;68.80
19947;DHT22;10135;50.702;7.276;2022-12-07T20:45:48;8.00;68.90
19947;DHT22;10135;50.702;7.276;2022-12-07T20:47:49;8.00;68.80
19947;DHT22;10135;50.702;7.276;2022-12-07T20:49:50;7.90;68.70
19947;DHT22;10135;50.702;7.276;2022-12-07T20:51:51;7.90;69.50
19947;DHT22;10135;50.702;7.276;2022-12-07T20:53:51;8.00;68.80
19947;DHT22;10135;50.702;7.276;2022-12-07T20:55:52;8.00;68.80
19947;DHT22;10135;50.702;7.276;2022-12-07T20:57:52;7.90;68.80
19947;DHT22;10135;50.702;7.276;2022-12-07T20:59:53;7.90;68.70
19947;DHT22;10135;50.702;7.276;2022-12-07T21:01:54;7.90;68.70
19947;DHT22;10135;50.702;7.276;2022-12-07T21:03:56;7.90;68.80
19947;DHT22;10135;50.702;7.276;2022-12-07T21:06:01;7.90;68.80
19947;DHT22;10135;50.702;7.276;2022-12-07T21:08:02;7.90;68.70
19947;DHT22;10135;50.702;7.276;2022-12-07T21:10:03;7.90;68.70
19947;DHT22;10135;50.702;7.276;2022-12-07T21:12:05;7.90;68.70
19947;DHT22;10135;50.702;7.276;2022-12-07T21:14:13;7.90;68.70
19947;DHT22;10135;50.702;7.276;2022-12-07T21:16:16;7.90;68.70
19947;DHT22;10135;50.702;7.276;2022-12-07T21:18:19;7.90;68.70
19947;DHT22;10135;50.702;7.276;2022-12-07T21:20:19;7.90;68.70
19947;DHT22;10135;50.702;7.276;2022-12-07T21:22:20;7.90;68.70